createdAt,value
2023-04-03T00:01:15.394Z,23.84
2023-04-03T00:06:18.138Z,23.85
2023-04-03T00:11:22.611Z,23.86
2023-04-03T00:16:26.752Z,23.82
2023-04-03T00:21:29.658Z,23.82
2023-04-03T00:26:32.442Z,23.81
2023-04-03T00:31:36.626Z,23.84
2023-04-03T00:36:39.443Z,23.72
2023-04-03T00:41:42.327Z,23.68
2023-04-03T00:46:46.464Z,23.74
2023-04-03T00:51:49.763Z,23.73
2023-04-03T00:56:55.789Z,23.72
2023-04-03T01:02:01.264Z,23.71
2023-04-03T01:07:08.728Z,23.74
2023-04-03T01:12:19.314Z,23.68
2023-04-03T01:17:34.315Z,23.69
2023-04-03T01:22:45.481Z,23.65
2023-04-03T01:27:48.297Z,23.63
2023-04-03T01:32:52.478Z,23.63
2023-04-03T01:37:56.149Z,23.64
2023-04-03T01:42:59.194Z,23.58
2023-04-03T01:48:03.629Z,23.63
2023-04-03T01:53:06.451Z,23.63
2023-04-03T01:58:10.113Z,23.59
2023-04-03T02:03:14.267Z,23.58
2023-04-03T02:08:18.901Z,23.57
2023-04-03T02:13:21.694Z,23.54
2023-04-03T02:18:25.813Z,23.53
2023-04-03T02:23:28.547Z,23.53
2023-04-03T02:28:31.368Z,23.51
2023-04-03T02:33:35.765Z,23.50
2023-04-03T02:38:38.995Z,23.47
2023-04-03T02:43:42.048Z,23.44
2023-04-03T02:48:46.503Z,23.43
2023-04-03T02:53:49.569Z,23.40
2023-04-03T02:58:56.867Z,23.37
2023-04-03T03:04:01.934Z,23.35
2023-04-03T03:09:04.950Z,23.33
2023-04-03T03:14:07.964Z,23.29
2023-04-03T03:19:12.332Z,23.27
2023-04-03T03:24:16.719Z,23.25
2023-04-03T03:29:19.474Z,23.21
2023-04-03T03:34:24.118Z,23.19
2023-04-03T03:39:26.960Z,23.16
2023-04-03T03:44:30.062Z,23.13
2023-04-03T03:49:34.503Z,23.11
2023-04-03T03:54:38.394Z,23.09
2023-04-03T03:59:42.745Z,23.08
2023-04-03T04:04:47.184Z,23.04
2023-04-03T04:09:50.953Z,23.03
2023-04-03T04:14:53.777Z,22.99
2023-04-03T04:19:58.134Z,22.97
2023-04-03T04:25:01.223Z,22.94
2023-04-03T04:30:05.423Z,22.94
2023-04-03T04:35:10.875Z,22.91
2023-04-03T04:40:17.798Z,22.90
2023-04-03T04:45:21.419Z,22.87
2023-04-03T04:50:26.055Z,22.85
2023-04-03T04:55:30.212Z,22.83
2023-04-03T05:00:33.093Z,22.81
2023-04-03T05:05:38.007Z,22.80
2023-04-03T05:10:43.149Z,22.77
2023-04-03T05:15:48.110Z,22.78
2023-04-03T05:20:53.698Z,22.75
2023-04-03T05:25:57.869Z,22.75
2023-04-03T05:31:01.554Z,22.73
2023-04-03T05:36:12.978Z,22.71
2023-04-03T05:41:21.590Z,22.70
2023-04-03T05:46:25.003Z,22.69
2023-04-03T05:51:36.151Z,22.69
2023-04-03T05:56:47.220Z,22.67
2023-04-03T06:01:50.486Z,22.66
2023-04-03T06:06:56.936Z,22.66
2023-04-03T06:12:00.416Z,22.65
2023-04-03T06:17:05.226Z,22.64
2023-04-03T06:22:10.128Z,22.64
2023-04-03T06:27:13.456Z,22.63
2023-04-03T06:32:16.338Z,22.63
2023-04-03T06:37:22.784Z,22.62
2023-04-03T06:42:26.338Z,22.62
2023-04-03T06:47:37.486Z,22.62
2023-04-03T06:52:42.154Z,22.60
2023-04-03T06:57:46.407Z,22.61
2023-04-03T07:02:49.346Z,22.62
2023-04-03T07:07:53.513Z,22.54
2023-04-03T07:12:57.103Z,20.22
2023-04-03T07:17:59.972Z,19.20
2023-04-03T07:23:04.451Z,20.67
2023-04-03T07:28:09.163Z,21.40
2023-04-03T07:33:12.656Z,21.56
2023-04-03T07:38:17.027Z,21.62
2023-04-03T07:43:21.712Z,21.56
2023-04-03T07:48:26.444Z,21.54
2023-04-03T07:53:31.100Z,21.56
2023-04-03T07:58:34.221Z,21.68
2023-04-03T08:03:38.356Z,21.70
2023-04-03T08:08:43.214Z,21.71
2023-04-03T08:13:47.148Z,21.70
2023-04-03T08:18:50.825Z,21.71
2023-04-03T08:23:54.966Z,21.71
2023-04-03T08:28:57.834Z,21.68
2023-04-03T08:34:00.749Z,21.68
2023-04-03T08:39:05.434Z,21.67
2023-04-03T08:44:27.260Z,21.67
2023-04-03T08:49:33.839Z,21.66
2023-04-03T08:54:50.793Z,21.65
2023-04-03T08:59:54.052Z,21.62
2023-04-03T09:04:57.791Z,21.62
2023-04-03T09:10:04.214Z,21.61
2023-04-03T09:15:20.040Z,21.60
2023-04-03T09:20:40.412Z,21.59
2023-04-03T09:25:45.946Z,21.58
2023-04-03T09:30:48.695Z,21.56
2023-04-03T09:35:52.157Z,21.57
2023-04-03T09:41:08.476Z,21.56
2023-04-03T09:46:21.321Z,21.54
2023-04-03T09:51:28.369Z,21.54
2023-04-03T09:56:33.050Z,21.54
2023-04-03T10:01:37.568Z,21.53
2023-04-03T10:06:47.669Z,21.53
2023-04-03T10:12:05.853Z,21.55
2023-04-03T10:17:24.158Z,21.53
2023-04-03T10:22:35.842Z,21.52
2023-04-03T10:27:50.891Z,21.54
2023-04-03T10:33:05.775Z,21.56
2023-04-03T10:38:20.382Z,21.54
2023-04-03T10:43:35.316Z,21.57
2023-04-03T10:49:02.429Z,21.59
2023-04-03T10:54:11.373Z,21.56
2023-04-03T10:59:30.575Z,21.57
2023-04-03T11:04:38.153Z,21.60
2023-04-03T11:09:44.684Z,21.62
2023-04-03T11:14:52.455Z,21.63
2023-04-03T11:20:02.595Z,21.64
2023-04-03T11:25:12.440Z,21.63
2023-04-03T11:30:22.432Z,21.71
2023-04-03T11:35:26.403Z,21.75
2023-04-03T11:40:33.241Z,21.74
2023-04-03T11:45:52.811Z,21.67
2023-04-03T11:50:56.208Z,21.73
2023-04-03T11:56:04.976Z,21.78
2023-04-03T12:01:11.851Z,21.76
2023-04-03T12:06:51.145Z,21.76
2023-04-03T12:11:55.243Z,21.78
2023-04-03T12:17:00.817Z,21.77
2023-04-03T12:22:21.516Z,21.81
2023-04-03T12:27:31.287Z,21.85
2023-04-03T12:32:49.262Z,21.82
2023-04-03T12:38:25.218Z,21.76
2023-04-03T12:43:45.255Z,21.83
2023-04-03T12:48:55.999Z,21.77
2023-04-03T12:54:04.323Z,21.76
2023-04-03T12:59:18.617Z,21.77
2023-04-03T13:04:23.337Z,21.73
2023-04-03T13:09:29.497Z,21.69
2023-04-03T13:14:33.708Z,21.65
2023-04-03T13:19:38.384Z,21.73
2023-04-03T13:24:41.588Z,21.26
2023-04-03T13:29:45.206Z,21.48
2023-04-03T13:34:50.433Z,19.53
2023-04-03T13:40:03.048Z,20.52
2023-04-03T13:45:13.746Z,20.88
2023-04-03T13:50:22.163Z,20.98
2023-04-03T13:55:27.705Z,21.03
2023-04-03T14:00:34.951Z,21.06
2023-04-03T14:05:39.672Z,21.09
2023-04-03T14:10:42.866Z,21.08
2023-04-03T14:15:46.373Z,21.10
2023-04-03T14:20:51.230Z,21.12
2023-04-03T14:25:54.318Z,21.12
2023-04-03T14:30:57.210Z,21.12
2023-04-03T14:36:01.504Z,21.10
2023-04-03T14:41:15.607Z,21.09
2023-04-03T14:46:26.400Z,21.11
2023-04-03T14:51:32.108Z,21.09
2023-04-03T14:56:35.003Z,21.09
2023-04-03T15:01:37.913Z,21.08
2023-04-03T15:06:42.308Z,21.08
2023-04-03T15:11:45.231Z,21.04
2023-04-03T15:16:48.778Z,21.04
2023-04-03T15:21:52.945Z,21.03
2023-04-03T15:26:56.168Z,21.01
2023-04-03T15:31:58.989Z,21.01
2023-04-03T15:37:03.396Z,21.00
2023-04-03T15:42:07.192Z,20.98
2023-04-03T15:47:11.234Z,20.97
2023-04-03T15:52:15.767Z,20.99
2023-04-03T15:57:18.924Z,20.98
2023-04-03T16:02:22.542Z,20.49
2023-04-03T16:07:27.055Z,20.83
2023-04-03T16:12:29.831Z,20.90
2023-04-03T16:17:34.606Z,20.94
2023-04-03T16:22:39.216Z,20.95
2023-04-03T16:27:43.968Z,20.94
2023-04-03T16:32:47.658Z,20.91
2023-04-03T16:37:51.868Z,20.91
2023-04-03T16:42:54.935Z,20.90
2023-04-03T16:47:57.833Z,20.89
2023-04-03T16:53:03.843Z,20.86
2023-04-03T16:58:06.922Z,20.87
2023-04-03T17:03:09.904Z,20.88
2023-04-03T17:08:14.853Z,20.87
2023-04-03T17:13:17.596Z,20.85
2023-04-03T17:18:20.923Z,20.83
2023-04-03T17:23:25.957Z,20.82
2023-04-03T17:28:29.193Z,20.81
2023-04-03T17:33:32.147Z,20.79
2023-04-03T17:38:36.765Z,20.78
2023-04-03T17:43:39.488Z,20.77
2023-04-03T17:48:42.706Z,20.76
2023-04-03T17:53:47.011Z,20.75
2023-04-03T17:58:52.787Z,20.74
2023-04-03T18:03:58.348Z,20.73
2023-04-03T18:09:07.384Z,20.74
2023-04-03T18:14:11.127Z,20.73
2023-04-03T18:24:26.171Z,20.73
2023-04-03T18:29:31.532Z,20.75
2023-04-03T18:34:34.429Z,20.73
2023-04-03T18:39:38.817Z,20.72
2023-04-03T18:44:43.890Z,20.71
2023-04-03T18:49:46.957Z,20.70
2023-04-03T18:54:51.210Z,20.70
2023-04-03T18:59:54.332Z,20.70
2023-04-03T19:04:57.435Z,20.71
2023-04-03T19:10:02.663Z,20.71
2023-04-03T19:15:06.671Z,20.72
2023-04-03T19:20:11.319Z,20.71
2023-04-03T19:25:15.789Z,20.70
2023-04-03T19:30:18.599Z,20.67
2023-04-03T19:35:21.334Z,20.70
2023-04-03T19:40:28.926Z,20.75
2023-04-03T19:45:32.954Z,20.82
2023-04-03T19:50:35.925Z,20.92
2023-04-03T19:55:40.383Z,21.02
2023-04-03T20:00:43.424Z,21.11
2023-04-03T20:05:46.764Z,21.20
2023-04-03T20:10:50.969Z,21.26
2023-04-03T20:15:53.842Z,21.33
2023-04-03T20:20:59.564Z,21.38
2023-04-03T20:26:14.591Z,21.36
2023-04-03T20:31:18.722Z,21.49
2023-04-03T20:36:23.513Z,21.59
2023-04-03T20:41:27.964Z,21.67
2023-04-03T20:46:48.942Z,21.69
2023-04-03T20:51:54.098Z,21.78
2023-04-03T20:56:58.823Z,21.84
2023-04-03T21:02:01.552Z,21.87
2023-04-03T21:07:43.277Z,21.92
2023-04-03T21:13:23.741Z,21.97
2023-04-03T21:18:52.440Z,22.01
2023-04-03T21:23:56.268Z,22.05
2023-04-03T21:28:59.337Z,22.09
2023-04-03T21:34:03.472Z,22.15
2023-04-03T21:39:06.315Z,22.21
2023-04-03T21:44:09.035Z,22.27
2023-04-03T21:49:13.111Z,22.31
2023-04-03T21:54:15.926Z,22.33
2023-04-03T21:59:18.895Z,22.33
2023-04-03T22:04:23.652Z,22.36
2023-04-03T22:09:26.667Z,22.42
2023-04-03T22:14:30.925Z,22.47
2023-04-03T22:19:35.527Z,22.50
2023-04-03T22:24:38.263Z,22.50
2023-04-03T22:29:41.253Z,22.50
2023-04-03T22:34:46.497Z,22.47
2023-04-03T22:39:49.265Z,22.44
2023-04-03T22:44:53.162Z,22.40
2023-04-03T22:49:57.221Z,22.35
2023-04-03T22:55:06.276Z,22.30
2023-04-03T23:00:21.638Z,22.26
2023-04-03T23:05:25.977Z,22.20
2023-04-03T23:10:28.775Z,22.13
2023-04-03T23:15:31.519Z,22.07
2023-04-03T23:20:35.790Z,22.03
2023-04-03T23:25:38.569Z,21.97
2023-04-03T23:30:42.242Z,21.92
2023-04-03T23:35:48.501Z,21.89
2023-04-03T23:40:51.564Z,21.82
2023-04-03T23:45:54.412Z,21.79
2023-04-03T23:50:58.482Z,21.74
2023-04-03T23:56:01.234Z,21.70
